• Join FlightAware (Why Join?)
  • Login
  • US Flag 
04:15PM EDT


 

Airport Tracker/Info


-or-


 

Live Flight TrackerFlight Track Log ✈ EJM949 ✈ 10-Aug-2013 ✈ CYFC - EGPH / EDI

Flight Track Log - Related Links

Times and Time Zones

All times are in EDT time to prevent confusion due to time zone crossing. See the EJM949 flight status page for this flight to view local times or setup timezone preferences in your user account.

Time Position Orientation Groundspeed Altitude Reporting Facility
EDT Latitude Longitude Course Direction KTS MPH feet Rate Location/Type
10:24PM 47.3022 -63.8075 52° Northeast  Level Estimated
10:25PM 47.3845 -63.6424 54° Northeast  Level Estimated
10:26PM 47.4665 -63.4767 54° Northeast  Level Estimated
10:27PM 47.5482 -63.3106 54° Northeast  Level Estimated
10:28PM 47.6298 -63.1439 54° Northeast  Level Estimated
10:29PM 47.7111 -62.9767 54° Northeast  Level Estimated
10:30PM 47.7921 -62.8090 54° Northeast  Level Estimated
10:31PM 47.8729 -62.6408 54° Northeast  Level Estimated
10:32PM 47.9535 -62.4720 54° Northeast  Level Estimated
10:33PM 48.0338 -62.3027 55° Northeast  Level Estimated
10:34PM 48.1138 -62.1329 55° Northeast  Level Estimated
10:35PM 48.1936 -61.9626 55° Northeast  Level Estimated
10:36PM 48.2732 -61.7917 55° Northeast  Level Estimated
10:37PM 48.3525 -61.6203 55° Northeast  Level Estimated
10:38PM 48.4316 -61.4484 55° Northeast  Level Estimated
10:39PM 48.5104 -61.2757 55° Northeast  Level Estimated
10:40PM 48.5891 -61.1025 55° Northeast  Level Estimated
10:41PM 48.6674 -60.9287 56° Northeast  Level Estimated
10:42PM 48.7458 -60.7539 56° Northeast  Level Estimated
10:43PM 48.8238 -60.5786 56° Northeast  Level Estimated
10:44PM 48.9016 -60.4027 56° Northeast  Level Estimated
10:45PM 48.9791 -60.2263 56° Northeast  Level Estimated
10:46PM 49.0563 -60.0494 56° Northeast  Level Estimated
10:47PM 49.1333 -59.8719 56° Northeast  Level Estimated
10:48PM 49.2100 -59.6938 57° Northeast  Level Estimated
10:49PM 49.2864 -59.5152 57° Northeast  Level Estimated
10:50PM 49.3623 -59.3368 57° Northeast  Level Estimated
10:51PM 49.4379 -59.1577 57° Northeast  Level Estimated
10:52PM 49.5132 -58.9781 57° Northeast  Level Estimated
10:53PM 49.5882 -58.7980 57° Northeast  Level Estimated
10:54PM 49.6630 -58.6173 57° Northeast  Level Estimated
10:55PM 49.7374 -58.4361 58° Northeast  Level Estimated
10:56PM 49.8116 -58.2543 58° Northeast  Level Estimated
10:57PM 49.8855 -58.0719 58° Northeast  Level Estimated
10:58PM 49.9591 -57.8890 58° Northeast  Level Estimated
10:59PM 50.0325 -57.7055 58° Northeast  Level Estimated
11:00PM 50.1055 -57.5215 58° Northeast  Level Estimated
11:01PM 50.1782 -57.3369 58° Northeast  Level Estimated
11:02PM 50.2507 -57.1517 58° Northeast  Level Estimated
11:03PM 50.3228 -56.9660 59° Northeast  Level Estimated
11:04PM 50.3947 -56.7797 59° Northeast  Level Estimated
11:05PM 50.4662 -56.5928 59° Northeast  Level Estimated
11:06PM 50.5375 -56.4054 59° Northeast  Level Estimated
11:07PM 50.6085 -56.2174 59° Northeast  Level Estimated
11:08PM 50.6791 -56.0289 59° Northeast  Level Estimated
11:09PM 50.7500 -55.8383 59° Northeast  Level Estimated
11:10PM 50.8206 -55.6471 60° Northeast  Level Estimated
11:11PM 50.8909 -55.4553 60° Northeast  Level Estimated
11:12PM 50.9608 -55.2630 60° Northeast  Level Estimated
11:13PM 51.0305 -55.0701 60° Northeast  Level Estimated
11:14PM 51.0998 -54.8766 60° Northeast  Level Estimated
11:15PM 51.1688 -54.6825 60° Northeast  Level Estimated
11:16PM 51.2375 -54.4878 61° Northeast  Level Estimated
11:17PM 51.3058 -54.2926 61° Northeast  Level Estimated
11:18PM 51.3739 -54.0968 61° Northeast  Level Estimated
11:19PM 51.4416 -53.9004 61° Northeast  Level Estimated
11:20PM 51.5089 -53.7034 61° Northeast  Level Estimated
11:21PM 51.5760 -53.5058 61° Northeast  Level Estimated
11:22PM 51.6427 -53.3077 61° Northeast  Level Estimated
11:23PM 51.7091 -53.1090 62° Northeast  Level Estimated
11:24PM 51.7751 -52.9096 62° Northeast  Level Estimated
11:25PM 51.8408 -52.7097 62° Northeast  Level Estimated
11:26PM 51.9062 -52.5093 62° Northeast  Level Estimated
11:27PM 51.9712 -52.3082 62° Northeast  Level Estimated
11:28PM 52.0359 -52.1066 62° Northeast  Level Estimated
11:29PM 52.1002 -51.9043 63° Northeast  Level Estimated
11:30PM 52.1642 -51.7015 63° Northeast  Level Estimated
11:31PM 52.2279 -51.4981 63° Northeast  Level Estimated
11:32PM 52.2911 -51.2942 63° Northeast  Level Estimated
11:33PM 52.3541 -51.0896 63° Northeast  Level Estimated
11:34PM 52.4167 -50.8845 63° Northeast  Level Estimated
11:35PM 52.4789 -50.6787 64° Northeast  Level Estimated
11:36PM 52.5407 -50.4724 64° Northeast  Level Estimated
11:37PM 52.6023 -50.2656 64° Northeast  Level Estimated
11:38PM 52.6634 -50.0581 64° Northeast  Level Estimated
11:39PM 52.7242 -49.8501 64° Northeast  Level Estimated
11:40PM 52.7846 -49.6414 64° Northeast  Level Estimated
11:41PM 52.8447 -49.4322 65° Northeast  Level Estimated
11:42PM 52.9043 -49.2225 65° Northeast  Level Estimated
11:43PM 52.9634 -49.0130 65° Northeast  Level Estimated
11:44PM 53.0221 -48.8031 65° Northeast  Level Estimated
11:45PM 53.0804 -48.5925 65° Northeast  Level Estimated
11:46PM 53.1385 -48.3808 65° Northeast  Level Estimated
11:47PM 53.1962 -48.1685 66° East  Level Estimated
11:48PM 53.2535 -47.9557 66° East  Level Estimated
11:49PM 53.3105 -47.7423 66° East  Level Estimated
11:50PM 53.3671 -47.5283 66° East  Level Estimated
11:51PM 53.4233 -47.3137 66° East  Level Estimated
11:52PM 53.4791 -47.0986 66° East  Level Estimated
11:53PM 53.5345 -46.8829 67° East  Level Estimated
11:54PM 53.5894 -46.6672 67° East  Level Estimated
11:55PM 53.6439 -46.4509 67° East  Level Estimated
11:56PM 53.6981 -46.2340 67° East  Level Estimated
11:57PM 53.7518 -46.0165 67° East  Level Estimated
11:58PM 53.8053 -45.7977 67° East  Level Estimated
11:59PM 53.8585 -45.5784 68° East  Level Estimated
12:00AM 53.9112 -45.3585 68° East  Level Estimated
12:01AM 53.9635 -45.1381 68° East  Level Estimated
12:02AM 54.0154 -44.9171 68° East  Level Estimated
12:03AM 54.0670 -44.6955 68° East  Level Estimated
12:04AM 54.1181 -44.4735 68° East  Level Estimated
12:05AM 54.1688 -44.2508 69° East  Level Estimated
12:06AM 54.2191 -44.0276 69° East  Level Estimated
12:07AM 54.2689 -43.8039 69° East  Level Estimated
12:08AM 54.3184 -43.5797 69° East  Level Estimated
12:09AM 54.3674 -43.3549 69° East  Level Estimated
12:10AM 54.4161 -43.1295 70° East  Level Estimated
12:11AM 54.4643 -42.9036 70° East  Level Estimated
12:12AM 54.5121 -42.6772 70° East  Level Estimated
12:13AM 54.5594 -42.4503 70° East  Level Estimated
12:14AM 54.6063 -42.2229 70° East  Level Estimated
12:15AM 54.6529 -41.9949 70° East  Level Estimated
12:16AM 54.6989 -41.7664 71° East  Level Estimated
12:17AM 54.7446 -41.5374 71° East  Level Estimated
12:18AM 54.7898 -41.3078 71° East  Level Estimated
12:19AM 54.8346 -41.0778 71° East  Level Estimated
12:20AM 54.8789 -40.8473 71° East  Level Estimated
12:21AM 54.9228 -40.6162 72° East  Level Estimated
12:22AM 54.9663 -40.3847 72° East  Level Estimated
12:23AM 55.0093 -40.1526 72° East  Level Estimated
12:24AM 55.0519 -39.9201 72° East  Level Estimated
12:25AM 55.0941 -39.6870 72° East  Level Estimated
12:26AM 55.1357 -39.4535 73° East  Level Estimated
12:27AM 55.1770 -39.2195 73° East  Level Estimated
12:28AM 55.2178 -38.9850 73° East  Level Estimated
12:29AM 55.2581 -38.7500 73° East  Level Estimated
12:30AM 55.2980 -38.5145 73° East  Level Estimated
12:31AM 55.3375 -38.2786 74° East  Level Estimated
12:32AM 55.3765 -38.0422 74° East  Level Estimated
12:33AM 55.4150 -37.8054 74° East  Level Estimated
12:34AM 55.4531 -37.5681 74° East  Level Estimated
12:35AM 55.4907 -37.3303 74° East  Level Estimated
12:36AM 55.5278 -37.0921 75° East  Level Estimated
12:37AM 55.5645 -36.8534 75° East  Level Estimated
12:38AM 55.6007 -36.6143 75° East  Level Estimated
12:39AM 55.6365 -36.3747 75° East  Level Estimated
12:40AM 55.6718 -36.1348 75° East  Level Estimated
12:41AM 55.7066 -35.8943 75° East  Level Estimated
12:42AM 55.7410 -35.6535 76° East  Level Estimated
12:43AM 55.7748 -35.4122 76° East  Level Estimated
12:44AM 55.8082 -35.1705 76° East  Level Estimated
12:45AM 55.8412 -34.9285 76° East  Level Estimated
12:46AM 55.8736 -34.6860 76° East  Level Estimated
12:47AM 55.9056 -34.4431 77° East  Level Estimated
12:48AM 55.9371 -34.1997 77° East  Level Estimated
12:49AM 55.9681 -33.9561 77° East  Level Estimated
12:50AM 55.9987 -33.7120 77° East  Level Estimated
12:51AM 56.0287 -33.4675 77° East  Level Estimated
12:52AM 56.0583 -33.2227 78° East  Level Estimated
12:53AM 56.0874 -32.9774 78° East  Level Estimated
12:54AM 56.1160 -32.7319 78° East  Level Estimated
12:55AM 56.1441 -32.4859 78° East  Level Estimated
12:56AM 56.1717 -32.2396 79° East  Level Estimated
12:57AM 56.1988 -31.9930 79° East  Level Estimated
12:58AM 56.2255 -31.7460 79° East  Level Estimated
12:59AM 56.2516 -31.4986 79° East  Level Estimated
01:00AM 56.2772 -31.2509 79° East  Level Estimated
01:01AM 56.3024 -31.0029 80° East  Level Estimated
01:02AM 56.3271 -30.7546 80° East  Level Estimated
01:03AM 56.3512 -30.5060 80° East  Level Estimated
01:04AM 56.3749 -30.2570 80° East  Level Estimated
01:05AM 56.3980 -30.0077 80° East  Level Estimated
01:06AM 56.4207 -29.7582 81° East  Level Estimated
01:07AM 56.4429 -29.5083 81° East  Level Estimated
01:08AM 56.4645 -29.2582 81° East  Level Estimated
01:09AM 56.4857 -29.0077 81° East  Level Estimated
01:10AM 56.5063 -28.7570 81° East  Level Estimated
01:11AM 56.5265 -28.5060 82° East  Level Estimated
01:12AM 56.5461 -28.2548 82° East  Level Estimated
01:13AM 56.5653 -28.0033 82° East  Level Estimated
01:14AM 56.5839 -27.7516 82° East  Level Estimated
01:15AM 56.6020 -27.4996 82° East  Level Estimated
01:16AM 56.6196 -27.2473 83° East  Level Estimated
01:17AM 56.6367 -26.9949 83° East  Level Estimated
01:18AM 56.6533 -26.7422 83° East  Level Estimated
01:19AM 56.6694 -26.4893 83° East  Level Estimated
01:20AM 56.6849 -26.2362 84° East  Level Estimated
01:21AM 56.7000 -25.9828 84° East  Level Estimated
01:22AM 56.7145 -25.7293 84° East  Level Estimated
01:23AM 56.7285 -25.4756 84° East  Level Estimated
01:24AM 56.7420 -25.2217 84° East  Level Estimated
01:25AM 56.7550 -24.9676 85° East  Level Estimated
01:26AM 56.7675 -24.7134 85° East  Level Estimated
01:27AM 56.7794 -24.4589 85° East  Level Estimated
01:28AM 56.7909 -24.2043 85° East  Level Estimated
01:29AM 56.8018 -23.9496 85° East  Level Estimated
01:30AM 56.8121 -23.6947 86° East  Level Estimated
01:31AM 56.8220 -23.4397 86° East  Level Estimated
01:32AM 56.8314 -23.1846 86° East  Level Estimated
01:33AM 56.8402 -22.9293 86° East  Level Estimated
01:34AM 56.8485 -22.6740 86° East  Level Estimated
01:35AM 56.8563 -22.4185 87° East  Level Estimated
01:36AM 56.8636 -22.1629 87° East  Level Estimated
01:37AM 56.8703 -21.9072 87° East  Level Estimated
01:38AM 56.8765 -21.6514 87° East  Level Estimated
01:39AM 56.8822 -21.3955 88° East  Level Estimated
01:40AM 56.8874 -21.1396 88° East  Level Estimated
01:41AM 56.8921 -20.8836 88° East  Level Estimated
01:42AM 56.8962 -20.6275 88° East  Level Estimated
01:43AM 56.8998 -20.3714 88° East  Level Estimated
01:44AM 56.9029 -20.1152 89° East  Level Estimated
01:45AM 56.9055 -19.8590 89° East  Level Estimated
01:46AM 56.9075 -19.6028 89° East  Level Estimated
01:47AM 56.9090 -19.3465 89° East  Level Estimated
01:48AM 56.9100 -19.0903 89° East  Level Estimated
01:49AM 56.9105 -18.8340 90° East  Level Estimated
01:50AM 56.9104 -18.5777 90° East  Level Estimated
01:51AM 56.9098 -18.3214 90° East  Level Estimated
01:52AM 56.9087 -18.0651 90° East  Level Estimated
01:53AM 56.9071 -17.8089 91° East  Level Estimated
01:54AM 56.9049 -17.5527 91° East  Level Estimated
01:55AM 56.9022 -17.2965 91° East  Level Estimated
01:56AM 56.8990 -17.0403 91° East  Level Estimated
01:57AM 56.8953 -16.7842 91° East  Level Estimated
01:58AM 56.8910 -16.5282 92° East  Level Estimated
01:59AM 56.8863 -16.2722 92° East  Level Estimated
02:00AM 56.8810 -16.0162 92° East  Level Estimated
02:01AM 56.8751 -15.7604 92° East  Level Estimated
02:02AM 56.8688 -15.5046 92° East  Level Estimated
02:03AM 56.8619 -15.2490 93° East  Level Estimated
02:04AM 56.8545 -14.9934 93° East  Level Estimated
02:05AM 56.8466 -14.7379 93° East  Level Estimated
02:06AM 56.8382 -14.4826 93° East  Level Estimated
02:07AM 56.8292 -14.2273 94° East  Level Estimated
02:08AM 56.8198 -13.9722 94° East  Level Estimated
02:09AM 56.8098 -13.7172 94° East  Level Estimated
02:10AM 56.7993 -13.4624 94° East  Level Estimated
02:11AM 56.7882 -13.2077 94° East  Level Estimated
02:12AM 56.7767 -12.9532 95° East  Level Estimated
02:13AM 56.7646 -12.6988 95° East  Level Estimated
02:14AM 56.7520 -12.4446 95° East  Level Estimated
02:15AM 56.7389 -12.1905 95° East  Level Estimated
02:16AM 56.7253 -11.9367 95° East  Level Estimated
02:17AM 56.7112 -11.6830 96° East  Level Estimated
02:18AM 56.6965 -11.4295 96° East  Level Estimated
02:19AM 56.6814 -11.1762 96° East  Level Estimated
02:20AM 56.6657 -10.9232 96° East  Level Estimated
02:21AM 56.6495 -10.6703 97° East  Level Estimated
02:22AM 56.6328 -10.4177 97° East  Level Estimated
02:23AM 56.6156 -10.1653 97° East  Level Estimated
02:24AM 56.5978 -9.9131 97° East  Level Estimated
02:25AM 56.5796 -9.6611 97° East  Level Estimated
02:26AM 56.5609 -9.4094 98° East  Level Estimated
02:27AM 56.5416 -9.1580 98° East  Level Estimated
02:28AM 56.5219 -8.9068 98° East  Level Estimated
02:29AM 56.5016 -8.6559 98° East  Level Estimated
02:30AM 56.4808 -8.4053 98° East  Level Estimated
02:31AM 56.4595 -8.1549 99° East  Level Estimated
02:32AM 56.4378 -7.9048 99° East  Level Estimated
02:33AM 56.4155 -7.6550 99° East  Level Estimated
02:34AM 56.3927 -7.4056 99° East  Level Estimated
02:35AM 56.3694 -7.1564 99° East  Level Estimated
02:36AM 56.3456 -6.9075 100° East  Level Estimated
02:37AM 56.3214 -6.6589 100° East  Level Estimated
02:38AM 56.2966 -6.4106 100° East  Level Estimated
02:39AM 56.2713 -6.1627 100° East  Level Estimated
02:40AM 56.2455 -5.9151 101° East  Level Estimated
02:41AM 56.2193 -5.6679 101° East  Level Estimated
02:42AM 56.1925 -5.4209 101° East  Level Estimated
02:43AM 56.1653 -5.1744 101° East  Level Estimated
02:44AM 56.1376 -4.9282 101° East  Level Estimated
02:45AM 56.1093 -4.6823 102° East  Level Estimated
02:46AM 56.0806 -4.4368 102° East  Level Estimated
02:47AM 56.0514 -4.1917 102° East  Level Estimated
02:48AM 56.0218 -3.9469 102° East  Level Estimated
02:49AM 55.9916 -3.7025 102° East  Level Estimated
02:50AM 55.9609 -3.4585 103° East  Level Estimated
02:51AM 55.9500 -3.3725 103° East  Level Estimated
02:52AM 55.9500 -3.3725 North  Level Estimated
02:53AM 55.9500 -3.3725 North  Level Estimated
02:54AM 55.9500 -3.3725 North  Level Estimated
02:55AM 55.9500 -3.3725 North  Level Estimated
02:56AM 55.9500 -3.3725 North  Level Estimated
02:57AM 55.9500 -3.3725 North  Level Estimated
02:58AM 55.9500 -3.3725 North  Level Estimated
02:59AM 55.9500 -3.3725 North  Level Estimated
03:00AM 55.9500 -3.3725 North  Level Estimated
03:01AM 55.9500 -3.3725 North  Level Estimated
03:02AM 55.9500 -3.3725 North  Level Estimated
03:03AM 55.9500 -3.3725 North  Level Estimated
03:04AM 55.9500 -3.3725 North  Level Estimated
03:04AM 56.3357 -4.4502 North 306 352 10,700  Level FlightAware UK
03:04AM 56.3094 -4.3690 120° Southeast 288 331 10,000 -1,320 Descending FlightAware UK
03:05AM 56.2749 -4.2622 120° Southeast 284 327 8,900 -1,320 Descending FlightAware UK
03:06AM 56.2492 -4.1834 120° Southeast 278 320 8,200 -780 Descending FlightAware UK
03:06AM 56.2236 -4.1058 121° Southeast 280 322 8,000 -180 Descending FlightAware UK
03:07AM 56.1987 -4.0295 120° Southeast 280 322 8,000  Level FlightAware UK
03:07AM 56.1737 -3.9520 120° Southeast 280 322 8,000  Level FlightAware UK
03:08AM 56.1411 -3.8541 121° Southeast 258 297 8,000  Level FlightAware UK
03:09AM 56.1261 -3.7759 109° East 256 295 8,000  Level FlightAware UK
03:09AM 56.1112 -3.6967 109° East 246 283 8,000 -720 Level FlightAware UK
03:10AM 56.0981 -3.6248 108° East 230 265 7,200 -1,500 Descending FlightAware UK
03:11AM 56.0931 -3.5490 97° East 230 265 6,200 -1,680 Descending FlightAware UK
03:11AM 56.0905 -3.4731 93° East 226 260 5,200 -1,500 Descending FlightAware UK
03:12AM 56.0846 -3.3242 94° East 218 251 3,500 -1,140 Descending FlightAware UK
03:13AM 56.0789 -3.2593 99° East 188 216 3,200 -660 Descending FlightAware UK
03:14AM 56.0592 -3.2251 136° Southeast 180 207 2,800 -840 Descending FlightAware UK
03:14AM 56.0375 -3.1895 138° Southeast 162 186 2,300 -480 Descending FlightAware UK
03:15AM 56.0163 -3.1831 170° South 166 191 2,300 -300 Level FlightAware UK
03:15AM 56.0053 -3.2091 233° Southwest 162 186 2,000 -720 Descending FlightAware UK
03:16AM 55.9915 -3.2481 238° Southwest 164 189 1,500 -720 Descending FlightAware UK
03:16AM 55.9807 -3.2820 240° Southwest 138 159 1,100 -720 Descending FlightAware UK
03:19AM 55.9500 -3.3725 239° Southwest  Level Estimated
03:26AM 55.9500 -3.3725 North  Level Estimated
03:27AM 55.9500 -3.3725 North  Level Estimated
03:28AM 55.9500 -3.3725 North  Level Estimated
03:29AM 55.9500 -3.3725 North  Level Estimated